Time;durP1;ratioP1;P1;durP2;ratioP2;P2;SDS_P1;SDS_P2;PMS_P1;PMS_P2;Temp;Humidity;BMP_temperature;BMP_pressure;BME280_temperature;BME280_humidity;BME280_pressure;Samples;Min_cycle;Max_cycle;Signal;HPM_P1;HPM_P2
2021/05/16 00:00:03;;;;;;;1.83;1.00;;;10.10;90.20;;;;;;4809610;29;20071;-82
2021/05/16 00:02:39;;;;;;;7.47;1.73;;;10.20;89.50;;;;;;4829032;29;20063;-82
2021/05/16 00:05:17;;;;;;;1.58;0.63;;;10.20;89.40;;;;;;4802252;29;20168;-82
2021/05/16 00:07:44;;;;;;;1.42;0.75;;;10.20;88.80;;;;;;4826427;29;20046;-83
2021/05/16 00:10:13;;;;;;;2.88;1.00;;;10.20;89.00;;;;;;4824570;29;20070;-83
2021/05/16 00:12:40;;;;;;;2.15;1.00;;;10.30;89.10;;;;;;4826575;29;20101;-82
2021/05/16 00:15:13;;;;;;;4.50;1.08;;;10.30;88.80;;;;;;4825759;29;20099;-85
2021/05/16 00:17:41;;;;;;;4.38;1.30;;;10.20;88.90;;;;;;4825040;29;20477;-82
2021/05/16 00:20:14;;;;;;;4.38;1.27;;;10.30;89.20;;;;;;4814380;29;20046;-82
2021/05/16 00:22:42;;;;;;;1.60;0.75;;;10.20;89.00;;;;;;4812150;29;20173;-82
2021/05/16 00:25:14;;;;;;;3.72;1.05;;;10.20;88.90;;;;;;4828362;29;20047;-85
2021/05/16 00:27:42;;;;;;;3.53;1.05;;;10.30;89.40;;;;;;4812638;29;20068;-85
2021/05/16 00:30:11;;;;;;;8.35;1.52;;;10.30;89.10;;;;;;4796693;29;20104;-83
2021/05/16 00:32:39;;;;;;;5.32;1.25;;;10.20;89.50;;;;;;4825902;29;20042;-82
2021/05/16 00:35:08;;;;;;;2.40;1.17;;;10.20;89.10;;;;;;4797395;29;20276;-82
2021/05/16 00:37:36;;;;;;;2.63;1.30;;;10.20;89.40;;;;;;4803457;29;20055;-82
2021/05/16 00:40:05;;;;;;;3.25;1.27;;;10.20;89.70;;;;;;4812255;29;20346;-83
2021/05/16 00:42:33;;;;;;;2.80;1.23;;;10.10;90.00;;;;;;4796521;29;20051;-82
2021/05/16 00:45:03;;;;;;;5.13;2.05;;;10.10;90.00;;;;;;4811792;29;20042;-83
2021/05/16 00:47:46;;;;;;;3.33;1.20;;;10.10;90.20;;;;;;4812773;29;20089;-82
2021/05/16 00:50:21;;;;;;;4.20;1.65;;;10.10;90.50;;;;;;4809007;29;20077;-81
2021/05/16 00:52:48;;;;;;;2.90;1.30;;;10.10;90.50;;;;;;4824553;29;20059;-83
2021/05/16 00:55:18;;;;;;;4.32;1.33;;;10.10;90.40;;;;;;4803030;29;20042;-81
2021/05/16 00:57:46;;;;;;;3.35;1.42;;;10.10;90.10;;;;;;4801479;29;20062;-80
2021/05/16 01:00:16;;;;;;;4.68;2.20;;;10.20;90.10;;;;;;4817376;29;20643;-81
2021/05/16 01:02:44;;;;;;;4.53;1.80;;;10.20;90.20;;;;;;4801836;29;20058;-82
2021/05/16 01:05:22;;;;;;;2.35;1.40;;;10.20;90.50;;;;;;4793526;29;20062;-81
2021/05/16 01:07:49;;;;;;;5.30;1.85;;;10.20;89.70;;;;;;4826860;29;20058;-81
2021/05/16 01:10:19;;;;;;;3.70;1.50;;;10.20;89.40;;;;;;4809734;29;20149;-82
2021/05/16 01:12:50;;;;;;;3.97;1.80;;;10.10;89.60;;;;;;4783054;29;20054;-83
2021/05/16 01:15:20;;;;;;;6.85;1.85;;;10.10;89.80;;;;;;4789447;29;20042;-82
2021/05/16 01:17:49;;;;;;;4.55;1.30;;;10.10;89.70;;;;;;4784016;29;20070;-83
2021/05/16 01:20:19;;;;;;;5.13;1.88;;;10.10;89.60;;;;;;4777923;29;20065;-85
2021/05/16 01:22:57;;;;;;;3.38;1.30;;;10.20;89.70;;;;;;4822256;29;20115;-83
2021/05/16 01:25:25;;;;;;;3.22;1.35;;;10.20;89.60;;;;;;4794001;29;20338;-80
2021/05/16 01:27:53;;;;;;;5.70;1.60;;;10.20;89.70;;;;;;4808214;29;20227;-81
2021/05/16 01:30:21;;;;;;;7.10;1.73;;;10.20;89.50;;;;;;4807704;29;20125;-81
2021/05/16 01:32:50;;;;;;;3.80;1.50;;;10.30;89.50;;;;;;4821157;29;20062;-82
2021/05/16 01:35:20;;;;;;;3.88;1.67;;;10.20;89.40;;;;;;4790413;29;20361;-81
2021/05/16 01:37:49;;;;;;;7.30;2.05;;;10.20;89.50;;;;;;4790913;29;20090;-82
2021/05/16 01:40:19;;;;;;;4.10;1.35;;;10.10;89.60;;;;;;4821652;29;20050;-84
2021/05/16 01:42:54;;;;;;;4.90;1.70;;;10.10;89.80;;;;;;4822450;29;20063;-82
2021/05/16 01:45:23;;;;;;;9.25;2.08;;;10.10;89.70;;;;;;4824243;29;20063;-81
2021/05/16 01:47:55;;;;;;;4.30;1.60;;;10.10;89.80;;;;;;4807500;29;20062;-83
2021/05/16 01:50:26;;;;;;;4.55;1.58;;;10.00;89.80;;;;;;4794533;29;20056;-81
2021/05/16 01:52:55;;;;;;;4.93;1.63;;;10.10;89.80;;;;;;4808151;29;20062;-82
2021/05/16 01:55:27;;;;;;;5.40;1.70;;;10.00;90.00;;;;;;4811102;29;20070;-82
2021/05/16 01:57:57;;;;;;;3.28;1.83;;;10.00;89.70;;;;;;4826510;29;20146;-82
2021/05/16 02:00:28;;;;;;;3.88;2.17;;;10.10;89.90;;;;;;4821483;29;20453;-83
2021/05/16 02:02:56;;;;;;;2.90;1.25;;;10.00;90.00;;;;;;4826623;29;20181;-81
2021/05/16 02:05:30;;;;;;;3.17;1.83;;;10.00;89.90;;;;;;4795953;29;20051;-81
2021/05/16 02:08:05;;;;;;;2.50;1.20;;;10.00;89.80;;;;;;4802443;29;20281;-81
2021/05/16 02:10:34;;;;;;;7.22;1.30;;;10.00;90.00;;;;;;4794133;29;20066;-81
2021/05/16 02:13:08;;;;;;;6.25;2.10;;;10.00;89.40;;;;;;4824334;29;20067;-81
2021/05/16 02:15:37;;;;;;;5.22;1.40;;;10.10;89.70;;;;;;4798726;29;20054;-81
2021/05/16 02:18:08;;;;;;;4.72;1.25;;;10.10;89.50;;;;;;4803409;29;20107;-83
2021/05/16 02:20:35;;;;;;;4.45;1.25;;;10.10;89.30;;;;;;4806487;29;20364;-82
2021/05/16 02:23:09;;;;;;;4.10;1.38;;;10.20;89.30;;;;;;4820540;29;20066;-81
2021/05/16 02:25:39;;;;;;;4.32;1.35;;;10.20;89.30;;;;;;4794405;29;20167;-82
2021/05/16 02:28:15;;;;;;;2.90;1.15;;;10.10;89.00;;;;;;4808966;29;20088;-81
2021/05/16 02:30:43;;;;;;;6.57;1.48;;;10.10;89.30;;;;;;4824385;29;20065;-83
2021/05/16 02:33:19;;;;;;;2.55;1.35;;;10.20;89.30;;;;;;4807416;29;20051;-80
2021/05/16 02:35:46;;;;;;;2.35;1.13;;;10.20;89.40;;;;;;4808137;29;20120;-83
2021/05/16 02:38:16;;;;;;;4.95;1.33;;;10.10;89.40;;;;;;4788107;29;20053;-82
2021/05/16 02:40:44;;;;;;;2.88;1.35;;;10.20;89.50;;;;;;4802361;29;20043;-82
2021/05/16 02:43:14;;;;;;;5.43;1.10;;;10.20;89.40;;;;;;4804774;29;20494;-83
2021/05/16 02:45:41;;;;;;;7.10;1.33;;;10.30;89.10;;;;;;4822250;29;20118;-84
2021/05/16 02:48:14;;;;;;;3.90;1.35;;;10.10;89.00;;;;;;4816877;29;20165;-81
2021/05/16 02:50:41;;;;;;;7.13;1.88;;;10.10;89.00;;;;;;4823868;29;20095;-82
2021/05/16 02:53:20;;;;;;;2.53;1.10;;;10.20;89.10;;;;;;4809194;29;20116;-82
2021/05/16 02:55:55;;;;;;;3.13;1.15;;;10.10;89.20;;;;;;4793872;29;20057;-82
2021/05/16 02:58:26;;;;;;;3.55;1.42;;;10.10;89.20;;;;;;4781685;29;20151;-82
2021/05/16 03:00:58;;;;;;;9.15;1.83;;;10.10;88.80;;;;;;4797599;29;20258;-83
2021/05/16 03:03:30;;;;;;;3.13;1.55;;;10.10;89.10;;;;;;4795636;29;20059;-82
2021/05/16 03:06:05;;;;;;;7.20;1.42;;;10.10;89.30;;;;;;4808025;29;20157;-82
2021/05/16 03:08:40;;;;;;;4.80;1.17;;;10.10;89.10;;;;;;4821900;29;20061;-83
2021/05/16 03:11:11;;;;;;;4.10;1.50;;;10.10;89.10;;;;;;4826043;29;20081;-85
2021/05/16 03:13:40;;;;;;;5.30;1.40;;;10.10;89.40;;;;;;4804162;29;20350;-83
2021/05/16 03:16:17;;;;;;;6.18;1.25;;;10.10;89.30;;;;;;4824260;29;20086;-83
2021/05/16 03:18:45;;;;;;;4.03;2.45;;;10.10;88.40;;;;;;4802875;29;20296;-82
2021/05/16 03:21:12;;;;;;;4.03;1.33;;;10.20;88.70;;;;;;4826142;29;20086;-82
2021/05/16 03:23:41;;;;;;;5.25;1.55;;;10.20;88.80;;;;;;4824346;29;20126;-83
2021/05/16 03:26:10;;;;;;;5.45;1.48;;;10.30;88.80;;;;;;4788531;29;20050;-81
2021/05/16 03:28:37;;;;;;;5.13;1.45;;;10.20;88.80;;;;;;4806800;29;20372;-82
2021/05/16 03:31:09;;;;;;;4.43;1.23;;;10.20;88.90;;;;;;4806976;29;20074;-82
2021/05/16 03:33:38;;;;;;;8.80;1.35;;;10.20;88.90;;;;;;4777486;29;20209;-83
2021/05/16 03:36:06;;;;;;;3.55;1.52;;;10.10;89.20;;;;;;4822659;29;20071;-81
2021/05/16 03:38:38;;;;;;;4.57;1.55;;;10.10;89.10;;;;;;4801753;29;20086;-82
2021/05/16 03:41:06;;;;;;;4.43;1.30;;;10.10;89.20;;;;;;4825221;29;20062;-82
2021/05/16 03:43:34;;;;;;;2.72;1.10;;;10.10;89.20;;;;;;4823446;29;20063;-82
2021/05/16 03:46:01;;;;;;;5.00;1.58;;;10.20;89.30;;;;;;4809551;29;20055;-83
2021/05/16 03:48:28;;;;;;;4.90;1.45;;;10.20;88.80;;;;;;4808196;29;20055;-83
2021/05/16 03:50:55;;;;;;;2.03;1.13;;;10.20;89.10;;;;;;4810878;29;20130;-81
2021/05/16 03:53:27;;;;;;;2.63;1.17;;;10.20;89.10;;;;;;4809997;29;20078;-81
2021/05/16 03:55:54;;;;;;;3.03;1.50;;;10.30;88.90;;;;;;4807156;29;20100;-83
2021/05/16 03:58:22;;;;;;;4.75;1.48;;;10.20;88.80;;;;;;4792096;29;20047;-82
2021/05/16 04:00:51;;;;;;;4.43;1.63;;;10.20;89.20;;;;;;4805201;29;20363;-82
2021/05/16 04:03:18;;;;;;;3.85;1.90;;;10.20;89.50;;;;;;4807651;29;20062;-81
2021/05/16 04:05:46;;;;;;;7.38;1.90;;;10.30;89.20;;;;;;4809887;29;20068;-81
2021/05/16 04:08:13;;;;;;;4.70;1.20;;;10.30;89.10;;;;;;4811527;29;20047;-83
2021/05/16 04:10:43;;;;;;;8.57;1.70;;;10.30;88.90;;;;;;4801964;29;20361;-81
2021/05/16 04:13:10;;;;;;;5.38;1.85;;;10.30;88.50;;;;;;4794740;29;20062;-82
2021/05/16 04:15:39;;;;;;;9.32;1.98;;;10.30;88.40;;;;;;4807980;29;20227;-83
2021/05/16 04:18:08;;;;;;;4.73;1.73;;;10.30;88.20;;;;;;4809203;29;20054;-83
2021/05/16 04:20:36;;;;;;;3.72;1.48;;;10.40;88.50;;;;;;4795029;29;20319;-83
2021/05/16 04:23:03;;;;;;;4.75;1.55;;;10.30;88.30;;;;;;4809647;29;20189;-82
2021/05/16 04:25:31;;;;;;;2.38;1.38;;;10.30;88.50;;;;;;4808632;29;20078;-81
2021/05/16 04:27:58;;;;;;;6.75;1.88;;;10.40;88.60;;;;;;4810591;29;20063;-82
2021/05/16 04:30:25;;;;;;;6.00;2.30;;;10.40;88.60;;;;;;4809210;29;20389;-81
2021/05/16 04:32:52;;;;;;;4.20;1.80;;;10.30;88.50;;;;;;4794910;29;20062;-81
2021/05/16 04:35:20;;;;;;;10.13;1.80;;;10.40;88.20;;;;;;4807892;29;20050;-82
2021/05/16 04:37:49;;;;;;;3.80;1.40;;;10.50;88.20;;;;;;4802906;29;20054;-82
2021/05/16 04:40:21;;;;;;;2.70;1.33;;;10.50;87.90;;;;;;4799596;29;20055;-81
2021/05/16 04:42:48;;;;;;;4.72;1.50;;;10.40;88.10;;;;;;4790235;29;20373;-82
2021/05/16 04:45:15;;;;;;;4.75;1.52;;;10.30;88.50;;;;;;4820916;29;20050;-81
2021/05/16 04:47:44;;;;;;;4.03;1.70;;;10.40;88.40;;;;;;4788631;29;20054;-82
2021/05/16 04:50:18;;;;;;;5.60;1.42;;;10.40;88.30;;;;;;4808508;29;20059;-81
2021/05/16 04:52:48;;;;;;;4.50;1.70;;;10.40;88.10;;;;;;4819641;29;20126;-81
2021/05/16 04:55:16;;;;;;;4.00;1.83;;;10.40;88.00;;;;;;4794202;29;20066;-82
2021/05/16 04:57:44;;;;;;;3.58;1.90;;;10.40;88.10;;;;;;4808002;29;20379;-81
2021/05/16 05:00:13;;;;;;;2.65;1.50;;;10.40;87.80;;;;;;4817859;29;20059;-82
2021/05/16 05:02:46;;;;;;;5.93;2.15;;;10.50;88.00;;;;;;4818112;29;20116;-82
2021/05/16 05:05:19;;;;;;;4.47;2.17;;;10.60;87.60;;;;;;4787617;29;21171;-82
2021/05/16 05:07:47;;;;;;;2.70;1.60;;;10.50;87.50;;;;;;4806392;29;20102;-83
2021/05/16 05:10:15;;;;;;;4.25;1.48;;;10.60;87.90;;;;;;4807369;29;20420;-82
2021/05/16 05:12:45;;;;;;;3.15;1.38;;;10.70;87.70;;;;;;4821785;29;21142;-82
2021/05/16 05:15:13;;;;;;;2.83;1.63;;;10.80;87.20;;;;;;4807194;29;20157;-81
2021/05/16 05:17:41;;;;;;;3.65;1.67;;;10.70;87.30;;;;;;4819111;29;20170;-82
2021/05/16 05:20:10;;;;;;;6.68;1.52;;;10.80;87.20;;;;;;4784688;29;20055;-82
2021/05/16 05:22:38;;;;;;;4.93;1.83;;;10.90;86.80;;;;;;4806813;29;20055;-82
2021/05/16 05:25:08;;;;;;;5.00;1.67;;;10.90;86.70;;;;;;4804782;29;20143;-81
2021/05/16 05:27:35;;;;;;;5.75;1.80;;;10.90;86.60;;;;;;4806543;29;20046;-81
2021/05/16 05:30:04;;;;;;;6.22;1.50;;;11.00;86.70;;;;;;4806828;29;20142;-82
2021/05/16 05:32:32;;;;;;;5.82;2.13;;;11.00;86.40;;;;;;4819968;29;20498;-81
2021/05/16 05:34:59;;;;;;;3.25;1.67;;;11.00;86.20;;;;;;4808710;29;20323;-81
2021/05/16 05:37:26;;;;;;;2.05;1.40;;;11.10;86.20;;;;;;4805999;29;20063;-82
2021/05/16 05:39:53;;;;;;;2.58;1.40;;;11.10;85.70;;;;;;4794548;29;20341;-81
2021/05/16 05:42:26;;;;;;;4.05;1.40;;;11.20;85.10;;;;;;4778097;29;20059;-81
2021/05/16 05:44:54;;;;;;;3.60;1.58;;;11.20;84.80;;;;;;4808587;29;20366;-81
2021/05/16 05:47:21;;;;;;;6.07;1.73;;;11.30;85.10;;;;;;4807713;29;20054;-81
2021/05/16 05:49:48;;;;;;;4.60;1.52;;;11.50;84.40;;;;;;4823042;29;20107;-81
2021/05/16 05:52:20;;;;;;;3.38;1.60;;;11.60;83.90;;;;;;4809256;29;20088;-81
2021/05/16 05:54:47;;;;;;;2.25;1.20;;;11.70;83.20;;;;;;4814304;29;20210;-82
2021/05/16 05:57:14;;;;;;;4.28;1.20;;;12.00;82.80;;;;;;4790338;29;20070;-82
2021/05/16 05:59:42;;;;;;;5.30;1.70;;;12.30;82.00;;;;;;4790305;29;20054;-82
2021/05/16 06:02:09;;;;;;;4.38;1.85;;;12.20;81.50;;;;;;4803518;29;20369;-83
2021/05/16 06:04:37;;;;;;;4.68;1.50;;;11.90;82.10;;;;;;4806025;29;20058;-85
2021/05/16 06:07:06;;;;;;;4.45;1.50;;;11.90;83.20;;;;;;4808418;29;20062;-83
2021/05/16 06:09:35;;;;;;;4.95;1.38;;;12.00;83.10;;;;;;4804312;29;20058;-82
2021/05/16 06:12:06;;;;;;;5.03;1.30;;;12.00;83.30;;;;;;4777529;29;20127;-81
2021/05/16 06:14:33;;;;;;;3.38;1.48;;;12.10;82.70;;;;;;4807752;29;20077;-82
2021/05/16 06:17:02;;;;;;;2.53;0.95;;;12.30;81.90;;;;;;4822076;29;20062;-81
2021/05/16 06:19:29;;;;;;;3.25;1.45;;;12.20;81.60;;;;;;4823160;29;20054;-80
2021/05/16 06:21:59;;;;;;;4.40;1.50;;;12.20;80.90;;;;;;4821187;29;20096;-83
2021/05/16 06:24:26;;;;;;;2.17;1.17;;;12.40;81.50;;;;;;4783832;29;20062;-83
2021/05/16 06:26:54;;;;;;;5.20;1.20;;;12.30;81.30;;;;;;4806701;29;20143;-81
2021/05/16 06:29:21;;;;;;;2.60;1.30;;;12.40;81.50;;;;;;4790431;29;20054;-80
2021/05/16 06:31:51;;;;;;;3.72;1.63;;;12.30;81.60;;;;;;4798404;29;20059;-80
2021/05/16 06:34:19;;;;;;;4.88;1.25;;;12.50;81.30;;;;;;4804590;29;20077;-83
2021/05/16 06:36:46;;;;;;;3.90;1.30;;;12.70;80.80;;;;;;4804081;29;20078;-81
2021/05/16 06:39:15;;;;;;;5.10;1.50;;;12.60;80.00;;;;;;4808077;29;20085;-82
2021/05/16 06:41:42;;;;;;;2.20;1.10;;;12.70;80.10;;;;;;4806003;29;20118;-84
2021/05/16 06:44:10;;;;;;;3.40;1.27;;;12.70;79.70;;;;;;4807355;29;20059;-81
2021/05/16 06:46:37;;;;;;;3.50;1.13;;;13.00;79.80;;;;;;4804333;29;20244;-82
2021/05/16 06:49:05;;;;;;;3.25;0.93;;;12.90;78.80;;;;;;4823821;29;20088;-81
2021/05/16 06:51:38;;;;;;;3.50;1.23;;;12.80;79.90;;;;;;4792538;29;20066;-80
2021/05/16 06:54:06;;;;;;;3.05;1.42;;;12.90;78.50;;;;;;4808386;29;20058;-82
2021/05/16 06:56:34;;;;;;;6.03;1.38;;;12.90;79.00;;;;;;4800150;29;20070;-80
2021/05/16 06:59:02;;;;;;;5.22;0.98;;;12.50;80.60;;;;;;4793449;29;20535;-83
2021/05/16 07:01:30;;;;;;;5.22;1.00;;;12.40;80.10;;;;;;4803269;29;20074;-83
2021/05/16 07:03:58;;;;;;;3.20;0.95;;;12.50;80.30;;;;;;4820817;29;20087;-80
2021/05/16 07:06:26;;;;;;;3.25;1.35;;;12.50;80.80;;;;;;4805624;29;20145;-81
2021/05/16 07:08:54;;;;;;;3.90;1.20;;;12.50;80.70;;;;;;4821802;29;20118;-83
2021/05/16 07:11:21;;;;;;;1.88;1.05;;;12.40;81.00;;;;;;4806087;29;20066;-82
2021/05/16 07:13:48;;;;;;;2.53;0.73;;;12.50;80.30;;;;;;4808879;29;20062;-82
2021/05/16 07:16:15;;;;;;;2.72;1.42;;;12.20;81.20;;;;;;4807907;29;20054;-81
2021/05/16 07:18:42;;;;;;;5.82;0.90;;;12.20;81.50;;;;;;4822734;29;20058;-80
2021/05/16 07:21:09;;;;;;;1.25;0.68;;;12.20;81.30;;;;;;4809070;29;20105;-81
2021/05/16 07:23:36;;;;;;;8.45;2.53;;;12.20;81.20;;;;;;4810012;29;20070;-82
2021/05/16 07:26:06;;;;;;;2.58;1.17;;;12.10;81.00;;;;;;4809704;29;20058;-82
2021/05/16 07:28:33;;;;;;;2.75;1.17;;;12.20;81.20;;;;;;4789413;29;20089;-82
2021/05/16 07:31:01;;;;;;;4.15;1.20;;;12.10;81.20;;;;;;4811789;29;20055;-83
2021/05/16 07:33:28;;;;;;;3.47;1.10;;;12.20;80.80;;;;;;4824637;29;20227;-80
2021/05/16 07:35:55;;;;;;;2.65;0.73;;;12.20;81.00;;;;;;4810840;29;20070;-81
2021/05/16 07:38:23;;;;;;;5.15;1.27;;;12.10;80.30;;;;;;4810248;29;20249;-80
2021/05/16 07:40:53;;;;;;;2.20;0.88;;;12.10;80.30;;;;;;4826455;29;20058;-81
2021/05/16 07:43:21;;;;;;;1.85;0.80;;;12.10;80.20;;;;;;4811792;29;20329;-81
2021/05/16 07:45:48;;;;;;;2.58;1.17;;;12.20;79.80;;;;;;4809692;29;20047;-82
2021/05/16 07:48:15;;;;;;;4.72;1.02;;;12.30;80.40;;;;;;4794172;29;20070;-82
2021/05/16 07:50:43;;;;;;;1.45;0.80;;;12.30;80.20;;;;;;4810586;29;20281;-81
2021/05/16 07:53:13;;;;;;;2.55;1.13;;;12.30;79.60;;;;;;4789790;29;20092;-81
2021/05/16 07:55:41;;;;;;;4.72;0.90;;;12.50;79.30;;;;;;4810902;29;20059;-81
2021/05/16 07:58:11;;;;;;;3.85;1.20;;;12.60;79.00;;;;;;4805224;29;20067;-82
2021/05/16 08:00:40;;;;;;;3.53;1.20;;;12.60;79.10;;;;;;4808557;29;20051;-83
2021/05/16 08:03:07;;;;;;;3.85;1.27;;;12.60;80.60;;;;;;4828172;29;20098;-82
2021/05/16 08:05:35;;;;;;;3.55;0.70;;;12.60;80.60;;;;;;4812925;29;21384;-83
2021/05/16 08:08:03;;;;;;;2.80;1.00;;;12.30;81.40;;;;;;4809707;29;20462;-84
2021/05/16 08:10:30;;;;;;;3.72;1.00;;;12.30;83.40;;;;;;4812416;29;20055;-83
2021/05/16 08:13:00;;;;;;;3.55;1.23;;;12.40;83.30;;;;;;4825985;29;20183;-84
2021/05/16 08:15:33;;;;;;;6.07;0.98;;;12.40;83.00;;;;;;4809505;29;20057;-84
2021/05/16 08:18:04;;;;;;;2.38;0.75;;;12.20;83.30;;;;;;4813655;29;20055;-83
2021/05/16 08:20:31;;;;;;;3.42;1.23;;;12.20;84.00;;;;;;4811286;29;20058;-83
2021/05/16 08:22:58;;;;;;;4.03;1.00;;;12.20;84.50;;;;;;4802239;29;20061;-84
2021/05/16 08:25:25;;;;;;;2.95;0.82;;;12.10;84.90;;;;;;4818361;29;20043;-83
2021/05/16 08:27:55;;;;;;;4.40;1.02;;;12.20;85.50;;;;;;4806320;29;20444;-82
2021/05/16 08:30:23;;;;;;;1.15;0.60;;;11.90;87.80;;;;;;4811930;29;20263;-83
2021/05/16 08:32:50;;;;;;;2.88;0.80;;;11.80;89.80;;;;;;4794757;29;20098;-84
2021/05/16 08:35:18;;;;;;;2.55;0.90;;;11.70;89.50;;;;;;4825892;29;20054;-83
2021/05/16 08:37:45;;;;;;;2.00;0.90;;;11.80;88.80;;;;;;4825481;29;20373;-83
2021/05/16 08:40:15;;;;;;;3.67;1.00;;;11.90;87.40;;;;;;4826941;29;20267;-83
2021/05/16 08:42:43;;;;;;;1.83;0.77;;;12.20;86.20;;;;;;4806312;29;22753;-84
2021/05/16 08:45:13;;;;;;;2.13;0.77;;;12.50;85.00;;;;;;4794998;29;20054;-85
2021/05/16 08:47:42;;;;;;;3.08;0.93;;;12.60;83.70;;;;;;4810368;29;20058;-84
2021/05/16 08:50:14;;;;;;;1.13;0.60;;;12.80;83.50;;;;;;4810827;29;20055;-82
2021/05/16 08:52:42;;;;;;;3.25;0.60;;;12.80;83.30;;;;;;4794402;29;20130;-84
2021/05/16 08:55:15;;;;;;;0.90;0.60;;;12.80;82.30;;;;;;4776473;29;20070;-84
2021/05/16 08:57:43;;;;;;;0.70;0.60;;;12.60;82.40;;;;;;4811148;29;20051;-83
2021/05/16 09:00:14;;;;;;;2.60;0.60;;;12.60;83.50;;;;;;4807466;29;20367;-83
2021/05/16 09:03:04;;;;;;;4.85;0.70;;;12.60;83.40;;;;;;4780511;29;20058;-82
2021/05/16 09:05:35;;;;;;;1.05;0.50;;;12.30;83.80;;;;;;4770598;29;21421;-82
2021/05/16 09:08:23;;;;;;;0.57;0.32;;;12.30;83.20;;;;;;1121013;29;10022669;-83
2021/05/16 09:10:55;;;;;;;0.75;0.30;;;12.50;81.80;;;;;;4465125;29;10000757;-83
2021/05/16 09:13:25;;;;;;;1.65;0.52;;;12.90;81.20;;;;;;4814240;29;20110;-83
2021/05/16 09:16:09;;;;;;;3.40;0.50;;;13.30;80.70;;;;;;4810295;29;20062;-84
2021/05/16 09:18:43;;;;;;;2.47;0.40;;;13.50;80.00;;;;;;4796709;29;20066;-82
2021/05/16 09:21:24;;;;;;;3.50;0.57;;;13.60;78.30;;;;;;4811926;29;20065;-85
2021/05/16 09:24:15;;;;;;;1.33;0.40;;;13.80;78.10;;;;;;4811850;29;20077;-83
2021/05/16 09:26:57;;;;;;;3.85;0.82;;;14.20;77.50;;;;;;4807671;29;20361;-82
2021/05/16 09:29:27;;;;;;;2.05;0.73;;;14.50;77.00;;;;;;4825198;29;20068;-83
2021/05/16 09:31:55;;;;;;;2.08;0.52;;;14.50;75.60;;;;;;4790398;29;20095;-83
2021/05/16 09:34:23;;;;;;;2.80;0.80;;;14.90;76.40;;;;;;4810027;29;20290;-86
2021/05/16 09:36:51;;;;;;;4.95;0.95;;;14.90;72.70;;;;;;4809374;29;20054;-83
2021/05/16 09:39:22;;;;;;;4.55;0.95;;;15.10;71.80;;;;;;4808389;29;20069;-86
2021/05/16 09:42:12;;;;;;;4.38;0.85;;;15.50;72.90;;;;;;4793773;29;20061;-83
2021/05/16 09:44:41;;;;;;;2.75;0.80;;;15.50;70.80;;;;;;4788844;29;20103;-84
2021/05/16 09:47:17;;;;;;;1.58;0.60;;;15.20;70.50;;;;;;4780861;29;20058;-84
2021/05/16 09:49:47;;;;;;;6.10;0.75;;;14.80;71.90;;;;;;4786065;29;20066;-85
2021/05/16 09:52:16;;;;;;;5.43;1.35;;;14.50;72.80;;;;;;4823616;29;20070;-83
2021/05/16 09:55:04;;;;;;;3.95;1.00;;;14.30;73.60;;;;;;4810450;29;20077;-83
2021/05/16 09:57:32;;;;;;;3.78;0.73;;;14.20;74.20;;;;;;4780327;29;20069;-83
2021/05/16 09:59:59;;;;;;;2.70;1.17;;;14.10;73.90;;;;;;4802953;29;20069;-83
2021/05/16 10:02:29;;;;;;;3.58;0.65;;;14.10;73.70;;;;;;4807593;29;20088;-83
2021/05/16 10:05:01;;;;;;;3.10;0.82;;;14.20;73.30;;;;;;4808827;29;20078;-83
2021/05/16 10:07:30;;;;;;;2.85;0.95;;;14.40;72.30;;;;;;4792355;29;20060;-83
2021/05/16 10:09:59;;;;;;;5.22;1.05;;;14.90;72.00;;;;;;4809709;29;20054;-82
2021/05/16 10:12:27;;;;;;;4.30;0.95;;;15.00;70.90;;;;;;4808383;29;20063;-85
2021/05/16 10:15:09;;;;;;;0.88;0.63;;;14.80;71.00;;;;;;4808096;29;20362;-84
2021/05/16 10:17:38;;;;;;;4.72;0.82;;;14.40;72.60;;;;;;4808959;29;20239;-82
2021/05/16 10:20:13;;;;;;;2.83;1.13;;;14.20;73.90;;;;;;4786479;29;20122;-84
2021/05/16 10:22:41;;;;;;;4.00;1.13;;;14.10;74.60;;;;;;4808467;29;20058;-82
2021/05/16 10:25:12;;;;;;;4.13;0.75;;;13.90;75.40;;;;;;4810872;29;20337;-83
2021/05/16 10:27:47;;;;;;;1.88;0.73;;;13.70;79.30;;;;;;4808836;29;20298;-83
2021/05/16 10:30:18;;;;;;;6.50;1.35;;;13.40;82.20;;;;;;4797095;29;20066;-82
2021/05/16 10:32:51;;;;;;;5.18;1.10;;;13.30;82.80;;;;;;4797238;29;20074;-83
2021/05/16 10:35:19;;;;;;;4.72;0.75;;;13.20;83.20;;;;;;4829505;29;20062;-85
2021/05/16 10:37:48;;;;;;;2.95;0.80;;;13.60;80.60;;;;;;4816347;29;20061;-82
2021/05/16 10:40:32;;;;;;;2.08;0.60;;;13.80;79.10;;;;;;4812190;29;20145;-83
2021/05/16 10:43:03;;;;;;;3.92;0.90;;;13.90;80.50;;;;;;4803351;29;20063;-84
2021/05/16 10:45:36;;;;;;;4.57;1.65;;;13.90;81.50;;;;;;4811463;29;20043;-83
2021/05/16 10:48:11;;;;;;;3.95;1.25;;;14.20;82.80;;;;;;4810533;29;20090;-83
2021/05/16 10:50:57;;;;;;;5.22;1.15;;;14.70;77.00;;;;;;4824744;29;20088;-82
2021/05/16 10:53:36;;;;;;;;;;;15.10;77.90;;;;;;4806091;29;20062;-83
2021/05/16 10:56:20;;;;;;;5.38;0.90;;;14.80;76.40;;;;;;4826770;29;19991;-83
2021/05/16 10:58:49;;;;;;;1.70;0.70;;;14.20;77.40;;;;;;4813316;29;20070;-83
2021/05/16 11:01:18;;;;;;;4.03;0.98;;;13.90;79.40;;;;;;4791096;29;20119;-84
2021/05/16 11:03:56;;;;;;;4.60;1.10;;;13.20;82.50;;;;;;4811317;29;20334;-83
2021/05/16 11:06:46;;;;;;;3.35;0.90;;;12.90;83.80;;;;;;4812365;29;20050;-83
2021/05/16 11:09:15;;;;;;;2.17;0.77;;;13.10;79.70;;;;;;4804771;29;20070;-86
2021/05/16 11:11:56;;;;;;;8.13;1.55;;;13.00;77.00;;;;;;4803850;29;20142;-84
2021/05/16 11:14:25;;;;;;;6.65;1.40;;;13.00;79.00;;;;;;4811624;29;20112;-83
2021/05/16 11:16:55;;;;;;;3.47;0.75;;;14.20;76.00;;;;;;4812607;29;20511;-82
2021/05/16 11:19:24;;;;;;;6.25;1.65;;;17.50;65.40;;;;;;4816595;29;20242;-83
2021/05/16 11:21:52;;;;;;;4.53;0.85;;;18.30;63.80;;;;;;4828783;29;20063;-83
2021/05/16 11:24:37;;;;;;;3.72;1.02;;;20.30;57.70;;;;;;4814696;29;20365;-83
2021/05/16 11:27:19;;;;;;;3.53;1.00;;;21.80;54.10;;;;;;4813484;29;20043;-83
2021/05/16 11:29:52;;;;;;;2.95;0.70;;;23.40;51.10;;;;;;4813874;29;20062;-82
2021/05/16 11:32:28;;;;;;;4.65;1.10;;;24.30;45.70;;;;;;4828181;29;20104;-83
2021/05/16 11:35:05;;;;;;;3.28;1.00;;;24.40;44.90;;;;;;4813362;29;20058;-82
2021/05/16 11:37:33;;;;;;;4.20;1.00;;;24.90;44.30;;;;;;4817712;29;20069;-83
2021/05/16 11:40:20;;;;;;;5.15;1.27;;;25.30;45.50;;;;;;4814915;29;20085;-84
2021/05/16 11:42:48;;;;;;;5.38;0.82;;;25.00;41.40;;;;;;4812874;29;20123;-84
2021/05/16 11:45:17;;;;;;;3.72;0.80;;;23.40;43.90;;;;;;4813730;29;20250;-82
2021/05/16 11:47:48;;;;;;;2.60;0.70;;;23.30;44.30;;;;;;4815147;29;20047;-83
2021/05/16 11:50:17;;;;;;;6.35;1.13;;;22.20;46.90;;;;;;4814506;29;20051;-83
2021/05/16 11:52:44;;;;;;;2.23;1.07;;;21.30;48.70;;;;;;4797205;29;20360;-83
2021/05/16 11:55:14;;;;;;;3.25;0.95;;;20.90;51.50;;;;;;4810864;29;20070;-84
2021/05/16 11:57:45;;;;;;;2.45;1.10;;;20.10;51.20;;;;;;4812643;29;20409;-82
2021/05/16 12:00:15;;;;;;;3.70;0.90;;;19.90;52.70;;;;;;4807873;29;20081;-83
2021/05/16 12:02:46;;;;;;;2.15;0.50;;;21.90;46.60;;;;;;4796608;29;20274;-83
2021/05/16 12:05:27;;;;;;;4.50;0.50;;;21.30;46.20;;;;;;4812101;29;20054;-83
2021/05/16 12:07:54;;;;;;;4.50;0.95;;;20.20;50.20;;;;;;4810909;29;20124;-84
2021/05/16 12:10:21;;;;;;;2.15;1.02;;;19.50;53.70;;;;;;4824279;29;20055;-84
2021/05/16 12:12:50;;;;;;;3.55;0.63;;;18.60;54.30;;;;;;4810290;29;20380;-83
2021/05/16 12:15:25;;;;;;;2.92;0.68;;;18.80;56.40;;;;;;4813315;29;20074;-83
2021/05/16 12:17:52;;;;;;;8.90;1.38;;;18.80;58.00;;;;;;4826445;29;20069;-83
2021/05/16 12:20:23;;;;;;;2.60;1.05;;;18.50;61.20;;;;;;4804377;29;20054;-84
2021/05/16 12:22:50;;;;;;;3.50;0.77;;;18.40;61.70;;;;;;4811327;29;20063;-84
2021/05/16 12:25:18;;;;;;;4.35;1.23;;;17.70;62.20;;;;;;4812272;29;20114;-84
2021/05/16 12:27:45;;;;;;;2.78;0.50;;;17.40;61.30;;;;;;4795907;29;20082;-86
2021/05/16 12:30:14;;;;;;;2.38;1.15;;;17.10;62.10;;;;;;4810263;29;20061;-86
2021/05/16 12:32:42;;;;;;;1.83;0.65;;;17.00;61.60;;;;;;4811713;29;20130;-85
2021/05/16 12:35:11;;;;;;;5.05;1.38;;;16.60;62.30;;;;;;4814864;29;20062;-83
2021/05/16 12:37:39;;;;;;;4.13;1.15;;;16.80;63.70;;;;;;4814916;29;20572;-83
2021/05/16 12:40:22;;;;;;;5.60;0.90;;;16.70;63.00;;;;;;4829631;29;20236;-86
2021/05/16 12:43:02;;;;;;;3.08;0.55;;;16.90;65.10;;;;;;4798821;29;20058;-83
2021/05/16 12:45:31;;;;;;;4.97;0.80;;;16.70;65.20;;;;;;4816533;29;20051;-84
2021/05/16 12:48:04;;;;;;;3.63;1.00;;;16.70;65.70;;;;;;4815875;29;20548;-83
2021/05/16 12:50:33;;;;;;;3.97;1.15;;;17.20;65.60;;;;;;4816232;29;20069;-84
2021/05/16 12:53:24;;;;;;;3.28;1.08;;;21.10;54.40;;;;;;4816047;29;20055;-86
2021/05/16 12:55:52;;;;;;;7.97;1.33;;;22.10;50.30;;;;;;4830913;29;20051;-84
2021/05/16 12:58:23;;;;;;;7.53;0.98;;;24.00;51.60;;;;;;4822547;29;20061;-82
2021/05/16 13:00:57;;;;;;;4.22;0.98;;;25.40;48.70;;;;;;4809305;29;20065;-83
2021/05/16 13:03:32;;;;;;;5.60;0.68;;;27.10;45.50;;;;;;4796047;29;20054;-86